createdAt,value
2022-09-01T00:00:38.208Z,99996.38
2022-09-01T00:01:44.992Z,99996.78
2022-09-01T00:02:48.976Z,99997.17
2022-09-01T00:03:54.544Z,99996.30
2022-09-01T00:04:59.978Z,99996.30
2022-09-01T00:06:04.013Z,99993.41
2022-09-01T00:07:09.517Z,99993.41
2022-09-01T00:08:18.469Z,99994.25
2022-09-01T00:09:21.675Z,100006.53
2022-09-01T00:10:27.261Z,99993.73
2022-09-01T00:11:33.266Z,99993.73
2022-09-01T00:12:37.521Z,100001.69
2022-09-01T00:13:42.607Z,100001.69
2022-09-01T00:14:46.616Z,100006.67
2022-09-01T00:15:50.732Z,100006.67
2022-09-01T00:18:05.543Z,100008.08
2022-09-01T00:18:13.137Z,100008.08
2022-09-01T00:19:19.258Z,100004.53
2022-09-01T00:20:23.700Z,100000.34
2022-09-01T00:21:30.931Z,100000.34
2022-09-01T00:22:35.031Z,99998.67
2022-09-01T00:23:39.168Z,100003.44
2022-09-01T00:24:44.809Z,100003.44
2022-09-01T00:30:26.761Z,99995.18
2022-09-01T00:33:13.157Z,100001.88
2022-09-01T00:34:18.142Z,100005.45
2022-09-01T00:35:23.480Z,100006.02
2022-09-01T00:36:28.638Z,100006.02
2022-09-01T00:37:32.666Z,100004.98
2022-09-01T00:38:36.805Z,100005.23
2022-09-01T00:39:40.831Z,100005.23
2022-09-01T00:40:54.528Z,100008.99
2022-09-01T00:41:53.840Z,100005.23
2022-09-01T00:42:57.931Z,100006.07
2022-09-01T00:44:05.184Z,100017.39
2022-09-01T00:45:10.116Z,100009.87
2022-09-01T00:46:18.424Z,100012.59
2022-09-01T00:47:23.277Z,100015.95
2022-09-01T00:48:27.395Z,100014.08
2022-09-01T00:49:41.096Z,100014.94
2022-09-01T00:50:45.204Z,100006.59
2022-09-01T00:51:53.876Z,100014.55
2022-09-01T00:52:58.052Z,100014.55
2022-09-01T00:54:06.834Z,100022.67
2022-09-01T00:55:25.170Z,100016.21
2022-09-01T00:56:32.680Z,100016.21
2022-09-01T00:57:36.876Z,100008.73
2022-09-01T00:58:41.073Z,100016.65
2022-09-01T00:59:52.329Z,100011.23
2022-09-01T01:00:56.476Z,100012.45
2022-09-01T01:02:00.877Z,100016.65
2022-09-01T01:03:04.896Z,100015.42
2022-09-01T01:04:11.721Z,100006.90
2022-09-01T01:05:16.519Z,100019.87
2022-09-01T01:06:21.625Z,100019.87
2022-09-01T01:07:26.102Z,100012.79
2022-09-01T01:08:33.549Z,100007.80
2022-09-01T01:09:40.589Z,100011.56
2022-09-01T01:10:44.712Z,100022.59
2022-09-01T01:11:48.918Z,100022.59
2022-09-01T01:12:53.058Z,100017.82
2022-09-01T01:14:05.740Z,100010.52
2022-09-01T01:15:14.814Z,100014.27
2022-09-01T01:16:21.693Z,100014.27
2022-09-01T01:18:44.532Z,100016.16
2022-09-01T01:19:54.285Z,100018.39
2022-09-01T01:21:04.545Z,100018.39
2022-09-01T01:22:11.576Z,100006.53
2022-09-01T01:23:47.357Z,100014.85
2022-09-01T01:24:51.460Z,100013.76
2022-09-01T01:25:58.793Z,100013.36
2022-09-01T01:27:02.996Z,100008.34
2022-09-01T01:28:12.906Z,100004.14
2022-09-01T01:29:17.525Z,100009.74
2022-09-01T01:30:22.429Z,100009.74
2022-09-01T01:31:26.591Z,100013.11
2022-09-01T01:32:32.433Z,100014.41
2022-09-01T01:33:44.829Z,100014.80
2022-09-01T01:34:50.985Z,100013.76
2022-09-01T01:35:55.854Z,100014.80
2022-09-01T01:36:59.918Z,100012.09
2022-09-01T01:38:05.405Z,100012.67
2022-09-01T01:39:12.579Z,100005.37
2022-09-01T01:40:20.587Z,99997.49
2022-09-01T01:41:24.782Z,100006.67
2022-09-01T01:42:28.882Z,100001.61
2022-09-01T01:43:33.019Z,100006.41
2022-09-01T01:44:38.017Z,100004.72
2022-09-01T01:45:41.993Z,100002.84
2022-09-01T01:46:49.078Z,100006.98
2022-09-01T01:47:54.949Z,100000.73
2022-09-01T01:49:01.292Z,100007.38
2022-09-01T01:50:05.940Z,100003.36
2022-09-01T01:51:13.092Z,99991.69
2022-09-01T01:52:17.314Z,99991.69
2022-09-01T01:53:22.034Z,99996.84
2022-09-01T01:54:26.927Z,99993.48
2022-09-01T01:55:35.604Z,99998.91
2022-09-01T01:56:38.349Z,99998.02
2022-09-01T01:57:42.505Z,99990.07
2022-09-01T01:58:46.944Z,99990.07
2022-09-01T01:59:50.974Z,99995.23
2022-09-01T02:00:58.175Z,99994.60
2022-09-01T02:02:02.496Z,99995.44
2022-09-01T02:03:08.069Z,99995.44
2022-09-01T02:04:12.469Z,99988.44
2022-09-01T02:05:18.234Z,99995.73
2022-09-01T02:06:25.609Z,99995.55
2022-09-01T02:07:30.261Z,99996.56
2022-09-01T02:08:37.165Z,99995.29
2022-09-01T02:09:47.879Z,99990.32
2022-09-01T02:10:52.800Z,100001.98
2022-09-01T02:11:56.861Z,99999.02
2022-09-01T02:13:02.642Z,100002.11
2022-09-01T02:14:08.767Z,100001.92
2022-09-01T02:15:12.819Z,99999.39
2022-09-01T02:16:17.274Z,99999.39
2022-09-01T02:17:23.032Z,100001.92
2022-09-01T02:18:35.635Z,100003.15
2022-09-01T02:19:41.199Z,99997.28
2022-09-01T02:20:47.862Z,100000.17
2022-09-01T02:21:52.069Z,99999.34
2022-09-01T02:22:59.551Z,99999.34
2022-09-01T02:24:06.554Z,99992.43
2022-09-01T02:25:11.305Z,99996.92
2022-09-01T02:26:17.336Z,99984.15
2022-09-01T02:27:21.464Z,99984.15
2022-09-01T02:28:25.496Z,99988.52
2022-09-01T02:29:29.775Z,99988.52
2022-09-01T02:30:37.189Z,99991.23
2022-09-01T02:31:41.311Z,99988.17
2022-09-01T02:32:46.861Z,99985.81
2022-09-01T02:33:53.976Z,99989.95
2022-09-01T02:34:57.970Z,99987.89
2022-09-01T02:36:04.948Z,99987.89
2022-09-01T02:37:08.992Z,99985.58
2022-09-01T02:38:13.427Z,99985.58
2022-09-01T02:39:21.782Z,99983.70
2022-09-01T02:40:26.730Z,99999.11
2022-09-01T02:41:30.851Z,99994.70
2022-09-01T02:42:36.312Z,99997.41
2022-09-01T02:43:43.205Z,99994.91
2022-09-01T02:44:47.307Z,99997.41
2022-09-01T02:45:53.447Z,99994.91
2022-09-01T02:46:58.288Z,99994.05
2022-09-01T02:48:03.478Z,99994.05
2022-09-01T02:49:09.119Z,99997.77
2022-09-01T02:50:15.745Z,99996.09
2022-09-01T02:51:22.620Z,99996.45
2022-09-01T02:52:26.793Z,99992.73
2022-09-01T02:53:32.627Z,99992.73
2022-09-01T02:54:37.052Z,99998.53
2022-09-01T02:55:43.156Z,100000.58
2022-09-01T02:56:56.434Z,100000.58
2022-09-01T02:57:59.336Z,100002.24
2022-09-01T02:59:04.344Z,99998.91
2022-09-01T03:00:11.575Z,100003.66
2022-09-01T03:01:22.329Z,100003.45
2022-09-01T03:02:26.335Z,100004.78
2022-09-01T03:03:30.440Z,100006.44
2022-09-01T03:04:36.929Z,100006.44
2022-09-01T03:05:42.495Z,100000.20
2022-09-01T03:06:47.297Z,100005.33
2022-09-01T03:07:54.938Z,100005.71
2022-09-01T03:09:02.752Z,100005.71
2022-09-01T03:10:09.326Z,100000.02
2022-09-01T03:11:13.544Z,100002.17
2022-09-01T03:12:19.527Z,100007.59
2022-09-01T03:14:33.701Z,100011.50
2022-09-01T03:15:38.506Z,100014.88
2022-09-01T03:16:44.526Z,100013.17
2022-09-01T03:17:48.666Z,100013.17
2022-09-01T03:18:53.394Z,100014.49
2022-09-01T03:19:57.464Z,100014.39
2022-09-01T03:21:02.109Z,100016.81
2022-09-01T03:22:06.245Z,100020.17
2022-09-01T03:23:12.457Z,100020.17
2022-09-01T03:24:18.462Z,100022.46
2022-09-01T03:25:22.384Z,100022.86
2022-09-01T03:26:26.958Z,100024.08
2022-09-01T03:27:30.955Z,100021.11
2022-09-01T03:28:37.847Z,100021.11
2022-09-01T03:29:41.829Z,100032.67
2022-09-01T03:30:51.918Z,100027.97
2022-09-01T03:31:56.056Z,100027.97
2022-09-01T03:33:04.137Z,100026.67
2022-09-01T03:34:08.109Z,100026.67
2022-09-01T03:35:12.725Z,100027.23
2022-09-01T03:36:19.882Z,100018.94
2022-09-01T03:37:25.610Z,100021.69
2022-09-01T03:38:32.826Z,100028.41
2022-09-01T03:39:38.371Z,100028.23
2022-09-01T03:40:42.551Z,100028.05
2022-09-01T03:41:46.731Z,100028.05
2022-09-01T03:42:50.978Z,100032.86
2022-09-01T03:43:55.815Z,100036.59
2022-09-01T03:45:01.421Z,100031.99
2022-09-01T03:46:05.770Z,100031.99
2022-09-01T03:47:09.821Z,100031.53
2022-09-01T03:48:13.810Z,100031.44
2022-09-01T03:49:19.295Z,100027.59
2022-09-01T03:50:27.665Z,100031.32
2022-09-01T03:51:34.238Z,100034.99
2022-09-01T03:52:38.220Z,100043.30
2022-09-01T03:53:42.261Z,100038.62
2022-09-01T03:54:48.367Z,100032.23
2022-09-01T03:55:52.202Z,100029.86
2022-09-01T03:56:56.777Z,100034.14
2022-09-01T03:58:03.575Z,100030.51
2022-09-01T03:59:09.257Z,100030.51
2022-09-01T04:00:13.967Z,100041.93
2022-09-01T04:01:18.108Z,100038.53
2022-09-01T04:02:22.193Z,100039.08
2022-09-01T04:03:31.059Z,100039.08
2022-09-01T04:04:36.389Z,100045.95
2022-09-01T04:05:44.713Z,100045.95
2022-09-01T04:06:48.760Z,100043.17
2022-09-01T04:07:54.695Z,100043.17
2022-09-01T04:08:58.826Z,100045.59
2022-09-01T04:10:02.928Z,100048.99
2022-09-01T04:11:12.544Z,100049.83
2022-09-01T04:12:16.578Z,100054.00
2022-09-01T04:13:26.455Z,100055.70
2022-09-01T04:14:30.548Z,100052.27
2022-09-01T04:15:37.822Z,100052.27
2022-09-01T04:16:43.717Z,100056.75
2022-09-01T04:17:53.941Z,100057.55
2022-09-01T04:18:54.953Z,100056.67
2022-09-01T04:20:00.568Z,100054.97
2022-09-01T04:21:04.752Z,100053.86
2022-09-01T04:22:08.909Z,100053.70
2022-09-01T04:23:12.947Z,100061.75
2022-09-01T04:24:17.484Z,100061.75
2022-09-01T04:25:23.111Z,100061.91
2022-09-01T04:26:28.223Z,100059.16
2022-09-01T04:27:39.719Z,100063.05
2022-09-01T04:28:41.194Z,100063.05
2022-09-01T04:29:58.053Z,100064.02
2022-09-01T04:30:55.677Z,100064.02
2022-09-01T04:32:08.987Z,100064.34
2022-09-01T04:33:13.096Z,100017.22
2022-09-01T04:34:17.154Z,100063.45
2022-09-01T04:35:21.179Z,100063.45
2022-09-01T04:36:30.535Z,100062.00
2022-09-01T04:37:34.629Z,100064.95
2022-09-01T04:38:42.625Z,100064.95
2022-09-01T04:39:55.585Z,100066.69
2022-09-01T04:40:57.685Z,100066.85
2022-09-01T04:42:01.760Z,100066.85
2022-09-01T04:43:07.097Z,100064.02
2022-09-01T04:44:13.452Z,100060.31
2022-09-01T04:45:20.656Z,100065.77
2022-09-01T04:46:25.993Z,100065.45
2022-09-01T04:47:31.660Z,100065.45
2022-09-01T04:48:37.383Z,100059.60
2022-09-01T04:49:41.414Z,100069.49
2022-09-01T04:50:45.645Z,100076.92
2022-09-01T04:51:53.886Z,100073.41
2022-09-01T04:53:02.070Z,100079.14
2022-09-01T04:54:08.911Z,100079.14
2022-09-01T04:55:13.806Z,100078.19
2022-09-01T04:56:20.216Z,100083.79
2022-09-01T04:57:33.085Z,100055.54
2022-09-01T04:58:42.762Z,100055.54
2022-09-01T04:59:48.411Z,100086.30
2022-09-01T05:00:55.591Z,100086.30
2022-09-01T05:02:03.668Z,100087.00
2022-09-01T05:03:07.826Z,100087.00
2022-09-01T05:04:14.845Z,100082.02
2022-09-01T05:05:21.873Z,100074.38
2022-09-01T05:06:31.143Z,100074.38
2022-09-01T05:07:32.178Z,100071.87
2022-09-01T05:08:37.406Z,100071.87
2022-09-01T05:09:43.453Z,100079.86
2022-09-01T05:10:49.590Z,100074.36
2022-09-01T05:11:53.836Z,100074.36
2022-09-01T05:12:57.913Z,100075.89
2022-09-01T05:14:01.962Z,100075.89
2022-09-01T05:15:06.694Z,100069.25
2022-09-01T05:16:13.856Z,100057.13
2022-09-01T05:17:19.545Z,100060.38
2022-09-01T05:18:25.234Z,100060.38
2022-09-01T05:19:31.035Z,100071.45
2022-09-01T05:20:38.475Z,100070.87
2022-09-01T05:21:49.714Z,100066.00
2022-09-01T05:22:52.951Z,100068.75
2022-09-01T05:23:59.394Z,100068.75
2022-09-01T05:25:03.906Z,100067.24
2022-09-01T05:26:11.046Z,100067.24
2022-09-01T05:27:15.009Z,100071.46
2022-09-01T05:28:21.362Z,100070.70
2022-09-01T05:29:25.646Z,100070.70
2022-09-01T05:30:30.111Z,100068.14
2022-09-01T05:31:34.941Z,100068.97
2022-09-01T05:32:39.418Z,100068.97
2022-09-01T05:33:43.388Z,100064.06
2022-09-01T05:34:47.394Z,100064.23
2022-09-01T05:35:59.310Z,100064.23
2022-09-01T05:37:08.618Z,100063.95
2022-09-01T05:38:10.366Z,100064.73
2022-09-01T05:39:17.491Z,100066.13
2022-09-01T05:40:23.128Z,100066.13
2022-09-01T05:41:27.296Z,100067.80
2022-09-01T05:42:34.096Z,100071.14
2022-09-01T05:43:48.300Z,100075.32
2022-09-01T05:44:58.245Z,100073.58
2022-09-01T05:46:08.289Z,100075.70
2022-09-01T05:47:14.754Z,100076.16
2022-09-01T05:48:18.680Z,100082.39
2022-09-01T05:49:22.986Z,100082.39
2022-09-01T05:50:27.549Z,100076.94
2022-09-01T05:51:50.573Z,100074.81
2022-09-01T05:52:39.513Z,100083.76
2022-09-01T05:53:47.366Z,100077.25
2022-09-01T05:54:53.415Z,100080.73
2022-09-01T05:55:58.811Z,100073.60
2022-09-01T05:57:23.252Z,100073.60
2022-09-01T05:58:08.650Z,100066.91
2022-09-01T05:59:30.017Z,100073.92
2022-09-01T06:00:20.904Z,100073.92
2022-09-01T06:01:28.264Z,100071.55
2022-09-01T06:02:32.493Z,100072.08
2022-09-01T06:03:37.953Z,100079.55
2022-09-01T06:04:44.172Z,100079.55
2022-09-01T06:05:52.530Z,100079.59
2022-09-01T06:07:05.767Z,100079.59
2022-09-01T06:08:06.920Z,100065.49
2022-09-01T06:09:11.615Z,100070.71
2022-09-01T06:10:16.113Z,100064.92
2022-09-01T06:11:24.378Z,100064.92
2022-09-01T06:12:32.039Z,100063.80
2022-09-01T06:13:36.177Z,99884.80
2022-09-01T06:14:40.179Z,100068.66
2022-09-01T06:15:44.685Z,100068.66
2022-09-01T06:16:48.855Z,100065.16
2022-09-01T06:17:54.460Z,100065.16
2022-09-01T06:18:59.180Z,100063.41
2022-09-01T06:20:03.734Z,100061.14
2022-09-01T06:21:08.426Z,100061.14
2022-09-01T06:22:12.925Z,100065.47
2022-09-01T06:23:20.610Z,100065.41
2022-09-01T06:24:24.871Z,100064.69
2022-09-01T06:25:28.919Z,100060.08
2022-09-01T06:26:36.883Z,100061.45
2022-09-01T06:27:42.564Z,100069.94
2022-09-01T06:32:36.109Z,100067.34
2022-09-01T06:33:40.565Z,100069.52
2022-09-01T06:34:44.980Z,100065.13
2022-09-01T06:35:49.022Z,100074.63
2022-09-01T06:36:53.199Z,100074.63
2022-09-01T06:37:58.004Z,100067.50
2022-09-01T06:39:08.595Z,100070.42
2022-09-01T06:40:15.437Z,100078.30
2022-09-01T06:41:20.779Z,100078.30
2022-09-01T06:42:24.807Z,100078.02
2022-09-01T06:43:28.823Z,100078.02
2022-09-01T06:44:32.925Z,100076.94
2022-09-01T06:45:45.734Z,100075.78
2022-09-01T06:46:54.775Z,100075.78
2022-09-01T06:48:00.425Z,100079.64
2022-09-01T06:49:04.371Z,100080.00
2022-09-01T06:50:08.881Z,100071.09
2022-09-01T06:51:21.373Z,100072.31
2022-09-01T06:52:27.765Z,100072.31
2022-09-01T06:53:32.815Z,100073.98
2022-09-01T06:54:37.850Z,100069.72
2022-09-01T06:55:42.482Z,100077.68
2022-09-01T06:56:51.388Z,100077.68
2022-09-01T06:58:09.537Z,100078.04
2022-09-01T06:59:03.007Z,100073.92
2022-09-01T07:00:10.490Z,100085.83
2022-09-01T07:01:16.192Z,100086.33
2022-09-01T07:02:22.292Z,100089.27
2022-09-01T07:03:26.872Z,100090.48
2022-09-01T07:04:31.179Z,100085.72
2022-09-01T07:07:54.401Z,100087.53
2022-09-01T07:08:11.597Z,100087.53
2022-09-01T07:10:24.030Z,100077.09
2022-09-01T07:12:08.258Z,100081.14
2022-09-01T07:12:28.692Z,100081.14
2022-09-01T07:13:34.336Z,100087.80
2022-09-01T07:17:22.998Z,100085.19
2022-09-01T07:17:58.154Z,100105.09
2022-09-01T07:19:03.065Z,100105.09
2022-09-01T07:20:23.621Z,100089.37
2022-09-01T07:23:26.635Z,100098.45
2022-09-01T07:24:33.002Z,100092.61
2022-09-01T07:26:48.686Z,100092.48
2022-09-01T07:27:52.804Z,100088.55
2022-09-01T07:29:04.194Z,100086.28
2022-09-01T07:30:05.802Z,100093.80
2022-09-01T07:34:39.376Z,100090.81
2022-09-01T07:36:25.656Z,100085.70
2022-09-01T07:42:56.481Z,100089.75
2022-09-01T07:43:29.808Z,100082.72
2022-09-01T07:44:33.502Z,100082.72
2022-09-01T07:45:47.287Z,100088.20
2022-09-01T07:46:44.556Z,99907.63
2022-09-01T07:47:55.906Z,100087.84
2022-09-01T07:49:29.534Z,100093.20
2022-09-01T07:50:24.652Z,100093.69
2022-09-01T07:52:16.304Z,100089.87
2022-09-01T07:53:24.955Z,100090.69
2022-09-01T07:54:28.960Z,100090.69
2022-09-01T07:55:33.001Z,100089.62
2022-09-01T07:56:40.037Z,100094.39
2022-09-01T07:57:44.931Z,100082.11
2022-09-01T07:58:50.941Z,100082.11
2022-09-01T07:59:54.963Z,100082.00
2022-09-01T08:00:58.946Z,100082.72
2022-09-01T08:02:06.371Z,100077.47
2022-09-01T08:03:10.729Z,100082.23
2022-09-01T08:04:14.977Z,100082.23
2022-09-01T08:05:20.652Z,100076.86
2022-09-01T08:06:27.299Z,100077.33
2022-09-01T08:07:32.139Z,100071.16
2022-09-01T08:08:38.622Z,100080.44
2022-09-01T08:09:55.889Z,100073.59
2022-09-01T08:11:11.041Z,100067.84
2022-09-01T08:12:04.507Z,100067.84
2022-09-01T08:13:15.383Z,100061.41
2022-09-01T08:14:23.111Z,100061.41
2022-09-01T08:17:34.396Z,100072.55
2022-09-01T08:17:52.718Z,100058.34
2022-09-01T08:18:54.262Z,100058.34
2022-09-01T08:20:01.032Z,100064.80
2022-09-01T08:21:11.892Z,100064.80
2022-09-01T08:22:16.753Z,100061.73
2022-09-01T08:23:22.735Z,100055.53
2022-09-01T08:24:26.790Z,100061.95
2022-09-01T08:25:31.845Z,100061.95
2022-09-01T08:26:37.480Z,100055.80
2022-09-01T08:27:41.638Z,100055.80
2022-09-01T08:28:46.462Z,100062.70
2022-09-01T08:29:52.935Z,100056.73
2022-09-01T08:30:57.140Z,100049.84
2022-09-01T08:32:05.868Z,100059.35
2022-09-01T08:33:10.512Z,100052.58
2022-09-01T08:34:39.822Z,100052.58
2022-09-01T08:36:35.916Z,100049.01
2022-09-01T08:38:07.466Z,100050.42
2022-09-01T08:38:58.901Z,100055.78
2022-09-01T08:41:35.768Z,100049.94
2022-09-01T08:43:03.536Z,100049.94
2022-09-01T08:44:10.534Z,100054.35
2022-09-01T08:45:35.618Z,100050.68
2022-09-01T08:46:42.482Z,100046.84
2022-09-01T08:48:15.323Z,100051.02
2022-09-01T08:49:24.386Z,100047.22
2022-09-01T08:50:07.731Z,100047.22
2022-09-01T08:51:42.851Z,100044.34
2022-09-01T08:52:52.939Z,100044.70
2022-09-01T08:54:06.891Z,100050.53
2022-09-01T08:55:22.378Z,100050.53
2022-09-01T08:56:29.917Z,100043.85
2022-09-01T08:57:42.429Z,100044.42
2022-09-01T08:58:47.368Z,100046.73
2022-09-01T08:59:53.810Z,100044.22
2022-09-01T09:01:03.385Z,100044.22
2022-09-01T09:02:21.744Z,100049.56
2022-09-01T09:04:01.004Z,100043.73
2022-09-01T09:05:16.942Z,100049.67
2022-09-01T09:06:17.551Z,100049.67
2022-09-01T09:08:13.901Z,100044.78
2022-09-01T09:09:09.191Z,100044.78
2022-09-01T09:13:05.429Z,100053.45
2022-09-01T09:15:50.746Z,100050.48
2022-09-01T09:16:57.640Z,100045.00
2022-09-01T09:18:38.804Z,100045.00
2022-09-01T09:19:21.666Z,100054.67
2022-09-01T09:20:28.980Z,100058.16
2022-09-01T09:21:37.895Z,100062.07
2022-09-01T09:22:43.430Z,100052.56
2022-09-01T09:23:50.426Z,100059.22
2022-09-01T09:25:12.449Z,100059.22
2022-09-01T09:26:22.218Z,100056.36
2022-09-01T09:27:40.755Z,100050.37
2022-09-01T09:28:43.839Z,100055.15
2022-09-01T09:31:18.585Z,100051.27
2022-09-01T09:31:29.717Z,100055.15
2022-09-01T09:32:44.273Z,100049.22
2022-09-01T09:33:51.167Z,100052.02
2022-09-01T09:34:55.245Z,100044.34
2022-09-01T09:36:17.273Z,100052.17
2022-09-01T09:37:30.270Z,100040.82
2022-09-01T09:38:41.472Z,100050.21
2022-09-01T09:39:45.626Z,100050.21
2022-09-01T09:41:16.343Z,100050.52
2022-09-01T09:42:15.461Z,100046.98
2022-09-01T09:43:20.034Z,100044.17
2022-09-01T09:44:29.861Z,100040.94
2022-09-01T09:45:42.023Z,100040.94
2022-09-01T09:46:47.388Z,100053.44
2022-09-01T09:47:52.993Z,100053.44
2022-09-01T09:49:12.187Z,100045.80
2022-09-01T09:50:25.876Z,100043.38
2022-09-01T09:51:29.923Z,100041.28
2022-09-01T09:52:35.434Z,100045.05
2022-09-01T09:53:39.450Z,100045.05
2022-09-01T09:55:07.643Z,100048.06
2022-09-01T09:56:20.264Z,100039.14
2022-09-01T09:57:24.567Z,100043.22
2022-09-01T09:58:42.056Z,100038.73
2022-09-01T10:00:04.075Z,100039.64
2022-09-01T10:01:09.683Z,100033.41
2022-09-01T10:02:28.872Z,100033.41
2022-09-01T10:03:39.043Z,100040.09
2022-09-01T10:04:44.821Z,100036.83
2022-09-01T10:05:50.542Z,100033.77
2022-09-01T10:06:54.798Z,100036.91
2022-09-01T10:08:00.607Z,100038.17
2022-09-01T10:09:10.597Z,100037.43
2022-09-01T10:10:30.509Z,100032.36
2022-09-01T10:11:41.922Z,100039.90
2022-09-01T10:12:46.171Z,100039.90
2022-09-01T10:13:51.924Z,100040.73
2022-09-01T10:15:12.519Z,100036.25
2022-09-01T10:16:21.844Z,100036.25
2022-09-01T10:17:26.193Z,100038.41
2022-09-01T10:18:36.797Z,100038.41
2022-09-01T10:19:44.082Z,100036.16
2022-09-01T10:21:16.810Z,100044.99
2022-09-01T10:22:23.018Z,100045.96
2022-09-01T10:23:30.972Z,100045.96
2022-09-01T10:24:39.326Z,100040.55
2022-09-01T10:25:47.804Z,100040.55
2022-09-01T10:26:52.727Z,100046.30
2022-09-01T10:28:06.059Z,100042.45
2022-09-01T10:29:18.396Z,100044.64
2022-09-01T10:30:23.730Z,100044.64
2022-09-01T10:31:32.384Z,100043.28
2022-09-01T10:32:49.055Z,100049.97
2022-09-01T10:33:48.632Z,100037.23
2022-09-01T10:34:53.740Z,100039.44
2022-09-01T10:35:58.175Z,100039.44
2022-09-01T10:37:11.197Z,100044.23
2022-09-01T10:38:17.725Z,100051.09
2022-09-01T10:39:21.970Z,100051.09
2022-09-01T10:40:31.765Z,100045.50
2022-09-01T10:42:00.466Z,100048.62
2022-09-01T10:43:19.694Z,100048.62
2022-09-01T10:44:33.181Z,100040.78
2022-09-01T10:45:39.329Z,100040.78
2022-09-01T10:46:50.536Z,100036.17
2022-09-01T10:47:51.684Z,100042.64
2022-09-01T10:49:03.566Z,100034.52
2022-09-01T10:50:09.799Z,100039.90
2022-09-01T10:51:21.119Z,100032.50
2022-09-01T10:52:50.553Z,100032.50
2022-09-01T10:53:55.175Z,100043.14
2022-09-01T10:55:04.091Z,100043.14
2022-09-01T11:01:52.927Z,100024.16
2022-09-01T11:03:32.779Z,100036.67
2022-09-01T11:04:32.842Z,100035.01
2022-09-01T11:06:15.009Z,100036.52
2022-09-01T11:08:15.003Z,100036.52
2022-09-01T11:09:05.416Z,100036.00
2022-09-01T11:12:34.376Z,100039.23
2022-09-01T11:16:46.412Z,100028.48
2022-09-01T11:17:58.114Z,100028.48
2022-09-01T11:19:32.004Z,100022.72
2022-09-01T11:20:45.549Z,100013.41
2022-09-01T11:22:07.573Z,100007.42
2022-09-01T11:23:27.756Z,100007.42
2022-09-01T11:24:50.749Z,99983.28
2022-09-01T11:27:02.038Z,100013.78
2022-09-01T11:28:12.305Z,100002.94
2022-09-01T11:29:52.138Z,100007.97
2022-09-01T11:31:03.752Z,100009.23
2022-09-01T11:32:08.064Z,100000.20
2022-09-01T11:33:15.746Z,100009.62
2022-09-01T11:34:22.033Z,100014.61
2022-09-01T11:35:29.232Z,100014.61
2022-09-01T11:36:40.284Z,100012.85
2022-09-01T11:37:46.171Z,100008.58
2022-09-01T11:38:56.694Z,99999.61
2022-09-01T11:40:03.769Z,100009.19
2022-09-01T11:41:08.845Z,100009.90
2022-09-01T11:42:23.099Z,100014.55
2022-09-01T11:43:29.732Z,100013.84
2022-09-01T11:44:42.765Z,100013.84
2022-09-01T11:46:04.671Z,100006.72
2022-09-01T11:47:14.856Z,100006.72
2022-09-01T11:48:19.136Z,100009.08
2022-09-01T11:49:29.060Z,100007.08
2022-09-01T11:50:37.431Z,100008.25
2022-09-01T11:51:44.457Z,100008.03
2022-09-01T11:53:01.255Z,100009.20
2022-09-01T11:54:07.002Z,100009.20
2022-09-01T11:55:11.575Z,100001.23
2022-09-01T11:56:22.020Z,100001.36
2022-09-01T11:57:38.060Z,100001.36
2022-09-01T11:58:42.292Z,100003.73
2022-09-01T11:59:46.611Z,100003.73
2022-09-01T12:00:52.449Z,100007.52
2022-09-01T12:02:00.789Z,99995.99
2022-09-01T12:03:08.009Z,99995.99
2022-09-01T12:04:27.235Z,100006.35
2022-09-01T12:05:39.105Z,100005.52
2022-09-01T12:06:46.421Z,100005.52
2022-09-01T12:07:55.759Z,100005.89
2022-09-01T12:09:02.706Z,100005.89
2022-09-01T12:10:29.497Z,100001.00
2022-09-01T12:11:36.141Z,100008.27
2022-09-01T12:12:42.014Z,100007.44
2022-09-01T12:13:57.751Z,100007.44
2022-09-01T12:15:10.616Z,100010.05
2022-09-01T12:16:19.815Z,100010.05
2022-09-01T12:17:23.903Z,100003.95
2022-09-01T12:18:32.485Z,100019.16
2022-09-01T12:19:39.085Z,100002.39
2022-09-01T12:20:43.427Z,100001.65
2022-09-01T12:21:52.943Z,99999.16
2022-09-01T12:22:57.276Z,100002.60
2022-09-01T12:24:22.154Z,100000.47
2022-09-01T12:25:32.193Z,100000.47
2022-09-01T12:26:36.384Z,100000.22
2022-09-01T12:27:40.577Z,100013.55
2022-09-01T12:28:45.397Z,100003.55
2022-09-01T12:29:52.641Z,100002.60
2022-09-01T12:30:57.417Z,100002.60
2022-09-01T12:32:04.255Z,99995.22
2022-09-01T12:33:26.489Z,99833.85
2022-09-01T12:34:36.165Z,99995.00
2022-09-01T12:35:40.215Z,99997.38
2022-09-01T12:37:49.270Z,99992.73
2022-09-01T12:38:56.155Z,99994.77
2022-09-01T12:40:00.369Z,99983.44
2022-09-01T12:41:07.603Z,99997.26
2022-09-01T12:42:21.120Z,99997.26
2022-09-01T12:43:39.769Z,99995.42
2022-09-01T12:44:46.816Z,99991.98
2022-09-01T12:45:50.917Z,99991.98
2022-09-01T12:46:58.369Z,99988.05
2022-09-01T12:48:02.699Z,99986.66
2022-09-01T12:49:22.624Z,99993.78
2022-09-01T12:50:31.346Z,99977.36
2022-09-01T12:51:35.789Z,99978.31
2022-09-01T12:52:49.071Z,99978.31
2022-09-01T12:53:58.909Z,99998.55
2022-09-01T12:55:10.717Z,99999.52
2022-09-01T12:56:36.417Z,99999.52
2022-09-01T12:57:43.456Z,100004.38
2022-09-01T12:58:49.843Z,99990.91
2022-09-01T13:00:13.702Z,99983.05
2022-09-01T13:01:33.185Z,99998.28
2022-09-01T13:02:40.573Z,99992.20
2022-09-01T13:03:47.796Z,99992.20
2022-09-01T13:04:51.903Z,99990.16
2022-09-01T13:05:58.051Z,99990.88
2022-09-01T13:07:05.409Z,99990.02
2022-09-01T13:08:15.513Z,99982.54
2022-09-01T13:09:19.945Z,99985.85
2022-09-01T13:10:28.101Z,99985.85
2022-09-01T13:12:41.112Z,99987.81
2022-09-01T13:13:45.252Z,99988.91
2022-09-01T13:14:49.733Z,99987.60
2022-09-01T13:15:56.997Z,99983.78
2022-09-01T13:17:02.922Z,99983.78
2022-09-01T13:18:09.968Z,99989.13
2022-09-01T13:19:24.034Z,99988.18
2022-09-01T13:20:22.645Z,99991.65
2022-09-01T13:21:26.765Z,99996.39
2022-09-01T13:22:30.929Z,99991.52
2022-09-01T13:23:36.589Z,99994.73
2022-09-01T13:24:42.358Z,99982.83
2022-09-01T13:25:48.257Z,99980.77
2022-09-01T13:28:09.091Z,99990.97
2022-09-01T13:29:06.835Z,99982.90
2022-09-01T13:30:36.313Z,99986.19
2022-09-01T13:31:29.224Z,99986.19
2022-09-01T13:32:33.109Z,99985.91
2022-09-01T13:34:45.961Z,99984.33
2022-09-01T13:35:51.934Z,99990.16
2022-09-01T13:36:59.135Z,99982.56
2022-09-01T13:38:03.284Z,99982.56
2022-09-01T13:39:07.410Z,99986.59
2022-09-01T13:40:13.848Z,99985.30
2022-09-01T13:41:17.939Z,99981.13
2022-09-01T13:42:22.773Z,99980.30
2022-09-01T13:43:35.540Z,99980.30
2022-09-01T13:44:35.785Z,99977.70
2022-09-01T13:45:40.009Z,99984.17
2022-09-01T13:47:00.507Z,99976.32
2022-09-01T13:49:42.210Z,99979.80
2022-09-01T13:50:07.226Z,99979.80
2022-09-01T13:51:18.859Z,99972.78
2022-09-01T13:52:15.726Z,99976.59
2022-09-01T13:53:22.831Z,99977.56